Time;durP1;ratioP1;P1;durP2;ratioP2;P2;SDS_P1;SDS_P2;PMS_P1;PMS_P2;Temp;Humidity;BMP_temperature;BMP_pressure;BME280_temperature;BME280_humidity;BME280_pressure;Samples;Min_cycle;Max_cycle;Signal;HPM_P1;HPM_P2
2023/12/06 00:02:19;;;;;;;2.90;2.08;;;2.00;99.90;;;;;;4910113;29;20055;-65
2023/12/06 00:04:45;;;;;;;2.92;2.28;;;2.00;99.90;;;;;;4909272;29;20054;-65
2023/12/06 00:07:12;;;;;;;2.70;1.67;;;2.00;99.90;;;;;;4912598;29;20067;-64
2023/12/06 00:09:44;;;;;;;3.03;2.30;;;1.90;99.90;;;;;;4912105;29;20050;-65
2023/12/06 00:12:16;;;;;;;2.50;2.17;;;1.90;99.90;;;;;;4912848;29;20055;-65
2023/12/06 00:14:48;;;;;;;2.80;2.17;;;2.00;99.90;;;;;;4913203;29;20062;-67
2023/12/06 00:17:20;;;;;;;2.95;2.10;;;1.90;99.90;;;;;;4897835;29;20528;-66
2023/12/06 00:19:47;;;;;;;2.72;2.20;;;2.00;99.90;;;;;;4906102;29;20040;-65
2023/12/06 00:22:19;;;;;;;2.63;2.42;;;2.00;99.90;;;;;;4910253;29;20048;-66
2023/12/06 00:24:53;;;;;;;3.55;2.42;;;2.00;99.90;;;;;;4911679;29;20048;-66
2023/12/06 00:27:25;;;;;;;2.67;1.88;;;2.00;99.90;;;;;;4905393;29;20048;-65
2023/12/06 00:29:57;;;;;;;3.15;1.90;;;2.00;99.90;;;;;;4909662;29;20075;-66
2023/12/06 00:32:29;;;;;;;3.13;1.80;;;2.00;99.90;;;;;;4897677;29;20147;-65
2023/12/06 00:35:01;;;;;;;3.53;2.70;;;2.00;99.90;;;;;;4909087;29;20086;-65
2023/12/06 00:37:32;;;;;;;2.63;2.00;;;2.00;99.90;;;;;;4910159;29;20051;-66
2023/12/06 00:39:59;;;;;;;2.53;2.30;;;1.90;99.90;;;;;;4927768;29;20103;-66
2023/12/06 00:42:31;;;;;;;4.55;2.28;;;2.00;99.90;;;;;;4906800;29;20046;-66
2023/12/06 00:45:04;;;;;;;3.22;2.00;;;2.00;99.90;;;;;;4914178;29;20044;-68
2023/12/06 00:47:36;;;;;;;3.03;1.90;;;1.90;99.90;;;;;;4925435;29;20051;-64
2023/12/06 00:50:08;;;;;;;2.87;2.17;;;1.90;99.90;;;;;;4897671;29;20076;-64
2023/12/06 00:52:35;;;;;;;3.05;2.05;;;1.90;99.90;;;;;;4913334;29;20044;-65
2023/12/06 00:55:08;;;;;;;3.22;2.05;;;1.90;99.90;;;;;;4912348;29;20044;-65
2023/12/06 00:57:39;;;;;;;2.30;1.80;;;1.90;99.90;;;;;;4913288;29;20043;-64
2023/12/06 01:00:12;;;;;;;2.55;2.30;;;1.90;99.90;;;;;;4904575;29;20528;-64
2023/12/06 01:02:44;;;;;;;2.78;2.05;;;1.90;99.90;;;;;;4916242;29;20051;-64
2023/12/06 01:05:16;;;;;;;2.92;2.35;;;1.80;99.90;;;;;;4913348;29;20509;-65
2023/12/06 01:07:48;;;;;;;2.92;2.25;;;1.80;99.90;;;;;;4915238;29;20056;-65
2023/12/06 01:10:21;;;;;;;2.17;1.88;;;1.80;99.90;;;;;;4912164;29;20054;-65
2023/12/06 01:12:53;;;;;;;4.18;3.10;;;1.80;99.90;;;;;;4911302;29;20506;-64
2023/12/06 01:15:25;;;;;;;2.47;2.20;;;1.80;99.90;;;;;;4943412;29;20048;-65
2023/12/06 01:17:57;;;;;;;2.45;2.05;;;1.80;99.90;;;;;;4913394;29;20530;-65
2023/12/06 01:20:28;;;;;;;2.88;2.10;;;1.80;99.90;;;;;;4912182;29;20058;-66
2023/12/06 01:23:00;;;;;;;2.90;2.22;;;1.80;99.90;;;;;;4914059;29;20040;-65
2023/12/06 01:25:33;;;;;;;2.85;2.00;;;1.80;99.90;;;;;;4911607;29;20126;-64
2023/12/06 01:28:00;;;;;;;3.70;2.00;;;1.80;99.90;;;;;;4914649;29;20036;-64
2023/12/06 01:30:32;;;;;;;3.15;2.42;;;1.80;99.90;;;;;;4916157;29;20036;-66
2023/12/06 01:33:04;;;;;;;3.13;2.08;;;1.80;99.90;;;;;;4914756;29;20070;-64
2023/12/06 01:35:36;;;;;;;2.67;2.05;;;1.80;99.90;;;;;;4914381;29;20176;-67
2023/12/06 01:38:07;;;;;;;3.03;2.35;;;1.90;99.90;;;;;;4912573;29;20040;-64
2023/12/06 01:40:40;;;;;;;2.40;2.00;;;1.90;99.90;;;;;;4913097;29;20099;-64
2023/12/06 01:43:11;;;;;;;2.80;2.50;;;1.80;99.90;;;;;;4912767;29;20057;-64
2023/12/06 01:45:38;;;;;;;2.25;2.00;;;1.80;99.90;;;;;;4912209;29;20104;-66
2023/12/06 01:48:11;;;;;;;2.50;1.80;;;1.80;99.90;;;;;;4920381;29;20044;-64
2023/12/06 01:50:43;;;;;;;2.38;1.90;;;1.90;99.90;;;;;;4912292;29;20048;-65
2023/12/06 01:53:15;;;;;;;2.50;2.00;;;1.80;99.90;;;;;;4912645;29;20052;-64
2023/12/06 01:55:47;;;;;;;2.30;1.83;;;1.80;99.90;;;;;;4913664;29;20417;-63
2023/12/06 01:58:20;;;;;;;2.30;2.10;;;1.80;99.90;;;;;;4927042;29;20052;-65
2023/12/06 02:00:52;;;;;;;2.75;2.20;;;1.80;99.90;;;;;;4914216;29;20048;-64
2023/12/06 02:03:24;;;;;;;3.08;2.05;;;1.80;99.90;;;;;;4910827;29;20512;-64
2023/12/06 02:05:56;;;;;;;2.40;2.08;;;1.80;99.90;;;;;;4911730;29;20040;-64
2023/12/06 02:08:22;;;;;;;2.50;1.98;;;1.80;99.90;;;;;;4910275;29;20139;-64
2023/12/06 02:10:54;;;;;;;2.30;2.03;;;1.80;99.90;;;;;;4910855;29;20076;-66
2023/12/06 02:13:28;;;;;;;3.35;1.88;;;1.80;99.90;;;;;;4919736;29;20147;-64
2023/12/06 02:16:00;;;;;;;3.55;1.92;;;1.80;99.90;;;;;;4912097;29;20049;-65
2023/12/06 02:18:32;;;;;;;2.47;2.25;;;1.80;99.90;;;;;;4911141;29;20044;-65
2023/12/06 02:21:04;;;;;;;2.78;2.22;;;1.80;99.90;;;;;;4912727;29;20122;-64
2023/12/06 02:23:38;;;;;;;3.70;2.30;;;1.80;99.90;;;;;;4913017;29;20076;-64
2023/12/06 02:26:10;;;;;;;;;;;1.80;99.90;;;;;;4915210;29;20058;-65
2023/12/06 02:28:42;;;;;;;3.05;2.28;;;1.70;99.90;;;;;;4913323;29;19930;-64
2023/12/06 02:31:13;;;;;;;2.92;2.38;;;1.80;99.90;;;;;;4912087;29;20056;-64
2023/12/06 02:33:47;;;;;;;2.60;2.20;;;1.80;99.90;;;;;;4911824;29;20040;-64
2023/12/06 02:36:21;;;;;;;3.35;2.35;;;1.80;99.90;;;;;;4896999;29;20064;-65
2023/12/06 02:38:53;;;;;;;3.75;2.70;;;1.80;99.90;;;;;;4909441;29;20127;-65
2023/12/06 02:41:27;;;;;;;3.40;2.88;;;1.80;99.90;;;;;;4918188;29;20044;-65
2023/12/06 02:43:58;;;;;;;;;;;1.70;99.90;;;;;;4911969;29;20501;-65
2023/12/06 02:46:30;;;;;;;3.63;2.83;;;1.70;99.90;;;;;;4913546;29;19927;-64
2023/12/06 02:49:02;;;;;;;3.92;2.88;;;1.70;99.90;;;;;;4898285;29;20058;-65
2023/12/06 02:51:34;;;;;;;4.15;2.72;;;1.70;99.90;;;;;;4913150;29;20055;-64
2023/12/06 02:54:06;;;;;;;3.75;2.78;;;1.70;99.90;;;;;;4910355;29;20088;-64
2023/12/06 02:56:37;;;;;;;4.38;3.13;;;1.80;99.90;;;;;;4912584;29;20104;-64
2023/12/06 02:59:09;;;;;;;4.65;3.17;;;1.80;99.90;;;;;;4909865;29;20491;-66
2023/12/06 03:01:46;;;;;;;4.45;3.95;;;1.80;99.90;;;;;;4909736;29;20036;-64
2023/12/06 03:04:18;;;;;;;4.15;2.70;;;1.90;99.90;;;;;;4910162;29;20049;-64
2023/12/06 03:06:50;;;;;;;3.63;2.97;;;1.90;99.90;;;;;;4910208;29;20046;-64
2023/12/06 03:09:17;;;;;;;4.15;3.67;;;1.90;99.90;;;;;;4910885;29;20513;-64
2023/12/06 03:11:49;;;;;;;7.28;2.92;;;1.90;99.90;;;;;;4908633;29;20052;-66
2023/12/06 03:14:20;;;;;;;4.68;3.03;;;2.00;99.90;;;;;;4909804;29;20044;-65
2023/12/06 03:16:52;;;;;;;4.43;2.88;;;2.00;99.90;;;;;;4912640;29;20484;-65
2023/12/06 03:19:24;;;;;;;3.58;3.08;;;2.00;99.90;;;;;;4918228;29;20497;-64
2023/12/06 03:21:51;;;;;;;4.60;2.65;;;2.00;99.90;;;;;;4912089;29;20099;-64
2023/12/06 03:24:18;;;;;;;4.43;2.55;;;2.00;99.90;;;;;;4911180;29;20048;-64
2023/12/06 03:26:50;;;;;;;3.47;2.85;;;2.10;99.90;;;;;;4910286;29;20040;-64
2023/12/06 03:29:21;;;;;;;3.80;3.00;;;2.10;99.90;;;;;;4908471;29;20425;-64
2023/12/06 03:31:53;;;;;;;3.60;2.80;;;2.10;99.90;;;;;;4908274;29;20461;-64
2023/12/06 03:34:25;;;;;;;7.05;3.17;;;2.10;99.90;;;;;;4910038;29;20068;-64
2023/12/06 03:36:58;;;;;;;4.63;2.95;;;2.10;99.90;;;;;;4910154;29;20135;-65
2023/12/06 03:39:26;;;;;;;4.30;2.97;;;2.10;99.90;;;;;;4912448;29;20131;-65
2023/12/06 03:41:57;;;;;;;6.93;2.70;;;2.10;99.90;;;;;;4913300;29;20052;-65
2023/12/06 03:44:25;;;;;;;3.55;2.83;;;2.10;99.90;;;;;;4913307;29;20046;-64
2023/12/06 03:46:56;;;;;;;3.30;2.67;;;2.10;99.90;;;;;;4912424;29;20047;-64
2023/12/06 03:49:28;;;;;;;4.55;2.58;;;2.10;99.90;;;;;;4906900;29;20066;-64
2023/12/06 03:52:00;;;;;;;4.93;2.95;;;2.10;99.90;;;;;;4910197;29;20057;-65
2023/12/06 03:54:32;;;;;;;4.60;2.75;;;2.10;99.90;;;;;;4910169;29;20415;-65
2023/12/06 03:57:04;;;;;;;4.70;2.55;;;2.10;99.90;;;;;;4909568;29;20048;-64
2023/12/06 03:59:35;;;;;;;6.93;3.15;;;2.10;99.90;;;;;;4907918;29;20123;-65
2023/12/06 04:02:08;;;;;;;4.05;2.60;;;2.10;99.90;;;;;;4910898;29;20044;-64
2023/12/06 04:04:39;;;;;;;4.82;2.90;;;2.10;99.90;;;;;;4911844;29;20127;-70
2023/12/06 04:07:11;;;;;;;3.58;2.70;;;2.10;99.90;;;;;;4913290;29;20043;-64
2023/12/06 04:09:38;;;;;;;3.72;3.10;;;2.10;99.90;;;;;;4913393;29;20044;-64
2023/12/06 04:12:10;;;;;;;6.65;3.22;;;2.10;99.90;;;;;;4911903;29;20051;-65
2023/12/06 04:14:42;;;;;;;5.85;2.80;;;2.10;99.90;;;;;;4907828;29;20036;-67
2023/12/06 04:17:14;;;;;;;3.22;2.38;;;2.10;99.90;;;;;;4911056;29;20048;-65
2023/12/06 04:19:45;;;;;;;4.07;2.72;;;2.20;99.90;;;;;;4914472;29;20067;-64
2023/12/06 04:22:17;;;;;;;3.63;2.70;;;2.20;99.90;;;;;;4913259;29;20505;-66
2023/12/06 04:24:49;;;;;;;6.03;3.10;;;2.10;99.90;;;;;;4914503;29;20127;-65
2023/12/06 04:27:21;;;;;;;3.22;2.70;;;2.10;99.90;;;;;;4916460;29;20060;-65
2023/12/06 04:29:53;;;;;;;4.38;2.88;;;2.10;99.90;;;;;;4914769;29;20044;-64
2023/12/06 04:32:25;;;;;;;4.43;2.58;;;2.10;99.90;;;;;;4914748;29;20747;-65
2023/12/06 04:34:57;;;;;;;3.53;2.92;;;2.10;99.90;;;;;;4915271;29;20052;-65
2023/12/06 04:37:29;;;;;;;4.38;3.92;;;2.10;99.90;;;;;;4916411;29;20457;-65
2023/12/06 04:39:56;;;;;;;9.60;4.40;;;2.10;99.90;;;;;;4924866;29;20048;-66
2023/12/06 04:42:27;;;;;;;7.18;3.00;;;2.10;99.90;;;;;;4915132;29;20036;-65
2023/12/06 04:44:59;;;;;;;5.55;2.95;;;2.10;99.90;;;;;;4912792;29;20537;-64
2023/12/06 04:47:31;;;;;;;5.97;3.33;;;2.10;99.90;;;;;;4913883;29;20032;-65
2023/12/06 04:50:03;;;;;;;3.05;2.75;;;2.20;99.90;;;;;;4911954;29;20135;-65
2023/12/06 04:52:36;;;;;;;4.30;2.88;;;2.10;99.90;;;;;;4913300;29;20245;-66
2023/12/06 04:55:08;;;;;;;4.07;2.55;;;2.10;99.90;;;;;;4912171;29;20048;-66
2023/12/06 04:57:40;;;;;;;3.05;2.50;;;2.10;99.90;;;;;;4914588;29;20112;-65
2023/12/06 05:00:13;;;;;;;4.22;2.75;;;2.10;99.90;;;;;;4916523;29;20060;-65
2023/12/06 05:02:44;;;;;;;8.00;2.70;;;2.10;99.90;;;;;;4911767;29;20596;-66
2023/12/06 05:05:12;;;;;;;5.70;3.38;;;2.10;99.90;;;;;;4914648;29;20289;-65
2023/12/06 05:07:47;;;;;;;4.47;2.83;;;2.10;99.90;;;;;;4910271;29;20043;-64
2023/12/06 05:10:19;;;;;;;3.90;2.95;;;2.10;99.90;;;;;;4914369;29;20036;-66
2023/12/06 05:12:51;;;;;;;4.63;2.88;;;2.10;99.90;;;;;;4909544;29;20112;-65
2023/12/06 05:15:23;;;;;;;4.80;3.65;;;2.10;99.90;;;;;;4914656;29;20147;-65
2023/12/06 05:17:55;;;;;;;6.22;3.13;;;2.10;99.90;;;;;;4926910;29;20078;-65
2023/12/06 05:20:27;;;;;;;5.65;2.90;;;2.20;99.90;;;;;;4913557;29;20087;-64
2023/12/06 05:22:54;;;;;;;5.60;3.53;;;2.20;99.90;;;;;;4910472;29;20037;-65
2023/12/06 05:25:25;;;;;;;5.00;3.28;;;2.10;99.90;;;;;;4892219;29;20665;-66
2023/12/06 05:27:57;;;;;;;8.57;2.90;;;2.10;99.90;;;;;;4915098;29;20393;-65
2023/12/06 05:30:29;;;;;;;4.05;3.13;;;2.10;99.90;;;;;;4910194;29;20528;-65
2023/12/06 05:32:57;;;;;;;3.83;3.22;;;2.10;99.90;;;;;;4918546;29;20130;-65
2023/12/06 05:35:24;;;;;;;4.45;3.00;;;2.10;99.90;;;;;;4910036;29;20040;-67
2023/12/06 05:37:56;;;;;;;5.63;3.60;;;2.10;99.90;;;;;;4913956;29;20056;-66
2023/12/06 05:40:28;;;;;;;3.90;2.92;;;2.10;99.90;;;;;;4912040;29;20092;-66
2023/12/06 05:42:54;;;;;;;4.78;3.30;;;2.10;99.90;;;;;;4912132;29;20064;-69
2023/12/06 05:45:21;;;;;;;5.32;3.28;;;2.10;99.90;;;;;;4910552;29;20137;-66
2023/12/06 05:47:53;;;;;;;5.55;3.05;;;2.10;99.90;;;;;;4911949;29;20056;-66
2023/12/06 05:50:25;;;;;;;4.57;3.25;;;2.10;99.90;;;;;;4912160;29;20055;-66
2023/12/06 05:52:58;;;;;;;7.35;3.60;;;2.10;99.90;;;;;;4913836;29;20043;-65
2023/12/06 05:55:30;;;;;;;5.32;2.83;;;2.10;99.90;;;;;;4908146;29;20708;-66
2023/12/06 05:58:02;;;;;;;7.93;2.95;;;2.10;99.90;;;;;;4908070;29;20048;-66
2023/12/06 06:00:35;;;;;;;5.50;3.50;;;2.10;99.90;;;;;;4911610;29;20420;-65
2023/12/06 06:03:07;;;;;;;6.13;3.53;;;2.10;99.90;;;;;;4911584;29;20063;-65
2023/12/06 06:05:39;;;;;;;4.38;2.83;;;2.10;99.90;;;;;;4909384;29;20039;-66
2023/12/06 06:08:11;;;;;;;3.90;3.08;;;2.20;99.90;;;;;;4910735;29;20052;-65
2023/12/06 06:10:37;;;;;;;6.22;3.75;;;2.10;99.90;;;;;;4912757;29;20054;-67
2023/12/06 06:13:09;;;;;;;4.38;3.50;;;2.10;99.90;;;;;;4909778;29;20051;-65
2023/12/06 06:15:41;;;;;;;4.95;3.33;;;2.10;99.90;;;;;;4895819;29;20076;-67
2023/12/06 06:18:13;;;;;;;4.47;3.17;;;2.10;99.90;;;;;;4911275;29;20115;-66
2023/12/06 06:20:45;;;;;;;4.85;3.35;;;2.20;99.90;;;;;;4911353;29;20497;-66
2023/12/06 06:23:17;;;;;;;3.60;2.78;;;2.10;99.90;;;;;;4912379;29;20527;-65
2023/12/06 06:25:49;;;;;;;5.07;2.97;;;2.20;99.90;;;;;;4910650;29;20483;-66
2023/12/06 06:28:20;;;;;;;3.00;2.70;;;2.20;99.90;;;;;;4924418;29;20111;-66
2023/12/06 06:30:52;;;;;;;2.70;2.08;;;2.20;99.90;;;;;;4909481;29;20045;-68
2023/12/06 06:33:19;;;;;;;4.82;2.90;;;2.20;99.90;;;;;;4914816;29;20058;-67
2023/12/06 06:35:51;;;;;;;2.72;2.53;;;2.20;99.90;;;;;;4911641;29;20056;-65
2023/12/06 06:38:23;;;;;;;4.82;2.78;;;2.20;99.90;;;;;;4905880;29;20051;-66
2023/12/06 06:40:55;;;;;;;3.92;2.58;;;2.20;99.90;;;;;;4912393;29;20032;-67
2023/12/06 06:43:27;;;;;;;3.58;2.70;;;2.20;99.90;;;;;;4914989;29;20047;-67
2023/12/06 06:46:00;;;;;;;3.78;2.47;;;2.20;99.90;;;;;;4916261;29;20416;-67
2023/12/06 06:48:27;;;;;;;3.03;2.35;;;2.10;99.90;;;;;;4912451;29;20055;-67
2023/12/06 06:50:54;;;;;;;4.05;2.83;;;2.20;99.90;;;;;;4911533;29;20055;-65
2023/12/06 06:53:26;;;;;;;3.13;2.22;;;2.20;99.90;;;;;;4911146;29;20398;-65
2023/12/06 06:55:58;;;;;;;11.50;4.18;;;2.20;99.90;;;;;;4910470;29;20148;-69
2023/12/06 06:58:30;;;;;;;3.35;2.65;;;2.20;99.90;;;;;;4910178;29;20044;-66
2023/12/06 07:01:02;;;;;;;4.15;2.65;;;2.20;99.90;;;;;;4908915;29;20051;-65
2023/12/06 07:03:35;;;;;;;2.95;2.47;;;2.20;99.90;;;;;;4921058;29;20143;-65
2023/12/06 07:06:07;;;;;;;2.97;2.30;;;2.20;99.90;;;;;;4896022;29;20116;-66
2023/12/06 07:08:40;;;;;;;3.40;2.60;;;2.20;99.90;;;;;;4906694;29;20060;-65
2023/12/06 07:11:12;;;;;;;4.00;2.90;;;2.20;99.90;;;;;;4909450;29;20134;-66
2023/12/06 07:13:43;;;;;;;4.28;2.50;;;2.20;99.90;;;;;;4909546;29;20311;-66
2023/12/06 07:16:16;;;;;;;5.10;2.75;;;2.20;99.90;;;;;;4910122;29;21347;-67
2023/12/06 07:18:49;;;;;;;4.05;2.70;;;2.20;99.90;;;;;;4908990;29;20052;-66
2023/12/06 07:21:21;;;;;;;3.45;2.55;;;2.20;99.90;;;;;;4913295;29;20036;-67
2023/12/06 07:23:52;;;;;;;3.40;2.38;;;2.30;99.90;;;;;;4926627;29;20040;-66
2023/12/06 07:26:24;;;;;;;3.03;2.00;;;2.30;99.90;;;;;;4907539;29;20135;-65
2023/12/06 07:28:57;;;;;;;6.88;2.60;;;2.30;99.90;;;;;;4920924;29;20047;-69
2023/12/06 07:31:29;;;;;;;3.70;2.25;;;2.30;99.90;;;;;;4907111;29;20044;-66
2023/12/06 07:33:56;;;;;;;3.28;2.30;;;2.30;99.90;;;;;;4908176;29;20075;-66
2023/12/06 07:36:28;;;;;;;4.22;2.50;;;2.20;99.90;;;;;;4907013;29;20472;-65
2023/12/06 07:39:00;;;;;;;4.15;2.40;;;2.20;99.90;;;;;;4909921;29;20062;-66
2023/12/06 07:41:32;;;;;;;4.63;3.13;;;2.30;99.90;;;;;;4912208;29;20064;-66
2023/12/06 07:44:04;;;;;;;3.88;2.40;;;2.20;99.90;;;;;;4910488;29;20044;-66
2023/12/06 07:46:36;;;;;;;9.88;6.10;;;2.20;99.90;;;;;;4907959;29;20135;-67
2023/12/06 07:49:08;;;;;;;74.07;39.72;;;2.20;99.90;;;;;;4907425;29;20046;-67
2023/12/06 07:51:39;;;;;;;5.20;4.18;;;2.20;99.90;;;;;;4890190;29;20059;-66
2023/12/06 07:54:11;;;;;;;9.38;7.15;;;2.20;99.90;;;;;;4913959;29;20059;-67
2023/12/06 07:56:44;;;;;;;3.05;2.65;;;2.20;99.90;;;;;;4898308;29;20444;-66
2023/12/06 07:59:16;;;;;;;3.90;3.03;;;2.20;99.90;;;;;;4916256;29;20048;-66
2023/12/06 08:01:48;;;;;;;3.17;2.72;;;2.20;99.90;;;;;;4899739;29;20044;-67
2023/12/06 08:04:15;;;;;;;3.65;2.85;;;2.20;99.90;;;;;;4914583;29;20119;-67
2023/12/06 08:06:47;;;;;;;3.83;2.60;;;2.20;99.90;;;;;;4913735;29;20048;-67
2023/12/06 08:09:14;;;;;;;3.55;2.97;;;2.30;99.90;;;;;;4915297;29;20124;-67
2023/12/06 08:11:46;;;;;;;4.38;3.38;;;2.30;99.90;;;;;;4911439;29;20433;-66
2023/12/06 08:14:18;;;;;;;4.25;2.78;;;2.30;99.90;;;;;;4911699;29;20052;-66
2023/12/06 08:16:50;;;;;;;3.53;2.58;;;2.30;99.90;;;;;;4913703;29;20402;-67
2023/12/06 08:19:22;;;;;;;3.60;2.60;;;2.30;99.90;;;;;;4912503;29;20134;-66
2023/12/06 08:22:31;;;;;;;4.20;2.75;;;2.40;99.90;;;;;;4911655;29;20047;-67
2023/12/06 08:25:05;;;;;;;3.05;2.75;;;2.40;99.90;;;;;;4916323;29;20128;-68
2023/12/06 08:27:36;;;;;;;5.82;2.90;;;2.30;99.90;;;;;;4916265;29;20036;-66
2023/12/06 08:30:09;;;;;;;3.72;2.60;;;2.40;99.90;;;;;;4915072;29;20517;-65
2023/12/06 08:32:40;;;;;;;6.15;2.72;;;2.40;99.90;;;;;;4911474;29;20051;-68
2023/12/06 08:35:13;;;;;;;4.07;2.88;;;2.40;99.90;;;;;;4914265;29;20469;-67
2023/12/06 08:37:40;;;;;;;5.45;3.13;;;2.40;99.90;;;;;;4912005;29;20047;-67
2023/12/06 08:40:14;;;;;;;4.28;3.55;;;2.40;99.90;;;;;;4912578;29;20048;-68
2023/12/06 08:42:46;;;;;;;5.95;2.90;;;2.40;99.90;;;;;;4913336;29;20072;-68
2023/12/06 08:45:13;;;;;;;2.97;2.30;;;2.40;99.90;;;;;;4913919;29;20056;-67
2023/12/06 08:47:46;;;;;;;2.42;2.05;;;2.40;99.90;;;;;;4912577;29;20048;-68
2023/12/06 08:50:18;;;;;;;4.43;2.55;;;2.50;99.90;;;;;;4911414;29;20509;-67
2023/12/06 08:52:50;;;;;;;3.95;2.40;;;2.50;99.90;;;;;;4912219;29;20052;-67
2023/12/06 08:55:17;;;;;;;4.72;2.75;;;2.50;99.90;;;;;;4917025;29;20517;-68
2023/12/06 08:57:50;;;;;;;4.30;2.28;;;2.50;99.90;;;;;;4908767;29;20533;-67
2023/12/06 09:00:21;;;;;;;5.18;2.05;;;2.60;99.90;;;;;;4914023;29;20044;-67
2023/12/06 09:02:53;;;;;;;3.45;2.47;;;2.60;99.90;;;;;;4909729;29;20051;-67
2023/12/06 09:05:25;;;;;;;2.70;2.33;;;2.60;99.90;;;;;;4912633;29;20078;-68
2023/12/06 09:07:57;;;;;;;4.00;3.22;;;2.60;99.90;;;;;;4927711;29;20056;-68
2023/12/06 09:10:30;;;;;;;3.75;2.55;;;2.70;99.90;;;;;;4915076;29;20041;-68
2023/12/06 09:12:56;;;;;;;2.83;2.50;;;2.70;99.90;;;;;;4912248;29;20059;-67
2023/12/06 09:15:28;;;;;;;3.72;2.28;;;2.60;99.90;;;;;;4921719;29;20050;-68
2023/12/06 09:18:00;;;;;;;3.55;2.33;;;2.60;99.90;;;;;;4911396;29;20436;-68
2023/12/06 09:20:27;;;;;;;5.35;2.40;;;2.70;99.90;;;;;;4913912;29;20512;-68
2023/12/06 09:22:54;;;;;;;2.85;2.25;;;2.70;99.90;;;;;;4918001;29;20151;-68
2023/12/06 09:25:26;;;;;;;3.05;2.47;;;2.80;99.90;;;;;;4897506;29;20040;-68
2023/12/06 09:27:58;;;;;;;4.32;2.63;;;2.80;99.90;;;;;;4915184;29;20516;-68
2023/12/06 09:30:30;;;;;;;3.60;2.58;;;2.80;99.90;;;;;;4909295;29;20508;-68
2023/12/06 09:33:02;;;;;;;5.43;2.45;;;2.80;99.90;;;;;;4909967;29;20057;-68
2023/12/06 09:35:34;;;;;;;5.55;2.40;;;2.80;99.90;;;;;;4910262;29;20588;-69
2023/12/06 09:38:02;;;;;;;4.13;2.75;;;2.80;99.90;;;;;;4911744;29;20051;-68
2023/12/06 09:40:29;;;;;;;2.55;2.22;;;2.80;99.90;;;;;;4912577;29;20047;-69
2023/12/06 09:43:04;;;;;;;3.50;2.65;;;2.80;99.90;;;;;;4910996;29;20126;-69
2023/12/06 09:45:37;;;;;;;4.70;2.72;;;2.90;99.90;;;;;;4908510;29;20237;-68
2023/12/06 09:48:09;;;;;;;4.57;2.75;;;2.90;99.90;;;;;;4905030;29;20041;-68
2023/12/06 09:50:41;;;;;;;3.22;2.85;;;2.90;99.90;;;;;;4910559;29;20050;-69
2023/12/06 09:53:13;;;;;;;2.97;2.53;;;2.90;99.90;;;;;;4924209;29;20716;-69
2023/12/06 09:55:40;;;;;;;5.03;3.05;;;3.00;99.90;;;;;;4896774;29;20044;-69
2023/12/06 09:58:07;;;;;;;2.83;2.55;;;3.00;99.90;;;;;;4911113;29;20127;-69
2023/12/06 10:00:34;;;;;;;3.72;2.72;;;3.00;99.90;;;;;;4910303;29;20055;-69
2023/12/06 10:03:09;;;;;;;5.32;2.60;;;3.00;99.90;;;;;;4912232;29;20441;-68
2023/12/06 10:05:36;;;;;;;4.38;2.80;;;3.00;99.90;;;;;;4912045;29;20044;-69
2023/12/06 10:08:12;;;;;;;4.80;3.22;;;3.10;99.90;;;;;;4919737;29;20428;-68
2023/12/06 10:10:44;;;;;;;5.57;3.08;;;3.10;99.90;;;;;;4913532;29;20052;-69
2023/12/06 10:13:16;;;;;;;3.72;2.83;;;3.10;99.90;;;;;;4912842;29;20517;-69
2023/12/06 10:15:43;;;;;;;4.05;3.45;;;3.20;99.90;;;;;;4908037;29;20044;-69
2023/12/06 10:18:15;;;;;;;4.43;3.03;;;3.10;99.90;;;;;;4912861;29;20048;-69
2023/12/06 10:20:47;;;;;;;4.25;2.60;;;3.10;99.90;;;;;;4913494;29;20136;-69
2023/12/06 10:23:19;;;;;;;4.53;2.90;;;3.10;99.90;;;;;;4911241;29;20043;-69
2023/12/06 10:25:51;;;;;;;5.18;2.97;;;3.10;99.90;;;;;;4913144;29;20032;-69
2023/12/06 10:28:24;;;;;;;4.70;2.90;;;3.10;99.90;;;;;;4921468;29;20099;-69
2023/12/06 10:31:02;;;;;;;3.58;2.70;;;3.10;99.90;;;;;;4908810;29;20040;-68
2023/12/06 10:33:30;;;;;;;4.93;3.42;;;3.20;99.90;;;;;;4907637;29;20044;-69
2023/12/06 10:36:01;;;;;;;3.50;2.63;;;3.10;99.90;;;;;;4911396;29;20040;-69
2023/12/06 10:38:35;;;;;;;4.18;2.78;;;3.20;99.90;;;;;;4913153;29;20131;-69
2023/12/06 10:41:09;;;;;;;4.57;3.70;;;3.20;99.90;;;;;;4906506;29;20115;-69
2023/12/06 10:43:38;;;;;;;3.17;2.88;;;3.20;99.90;;;;;;4915957;29;20040;-69
2023/12/06 10:46:06;;;;;;;3.88;2.75;;;3.20;99.90;;;;;;4914512;29;20150;-69
2023/12/06 10:48:39;;;;;;;4.05;2.67;;;3.20;99.90;;;;;;4909107;29;20040;-69
2023/12/06 10:51:07;;;;;;;5.85;3.67;;;3.30;99.90;;;;;;4913556;29;20512;-69
2023/12/06 10:53:35;;;;;;;3.90;2.70;;;3.30;99.90;;;;;;4918815;29;20048;-69
2023/12/06 10:56:03;;;;;;;6.03;2.90;;;3.30;99.90;;;;;;4908592;29;20093;-69
2023/12/06 10:58:35;;;;;;;4.78;2.80;;;3.30;99.90;;;;;;4913298;29;20042;-69
2023/12/06 11:01:02;;;;;;;4.75;3.03;;;3.30;99.90;;;;;;4910239;29;20551;-69
2023/12/06 11:03:35;;;;;;;3.60;2.90;;;3.30;99.90;;;;;;4911696;29;20740;-69
2023/12/06 11:06:48;;;;;;;4.28;2.78;;;3.30;99.90;;;;;;4909646;29;20044;-69
2023/12/06 11:09:18;;;;;;;4.15;2.80;;;3.30;99.90;;;;;;4920338;29;20071;-69
2023/12/06 11:12:00;;;;;;;3.20;2.67;;;3.30;99.90;;;;;;4902225;29;20127;-69
2023/12/06 11:14:43;;;;;;;4.22;2.75;;;3.30;99.90;;;;;;4912437;29;20126;-69
2023/12/06 11:17:37;;;;;;;4.03;2.97;;;3.30;99.90;;;;;;4911999;29;20063;-69
2023/12/06 11:20:09;;;;;;;4.90;3.07;;;3.30;99.90;;;;;;4909872;29;20044;-69
2023/12/06 11:22:42;;;;;;;4.18;2.80;;;3.30;99.90;;;;;;4911756;29;20048;-69
2023/12/06 11:25:12;;;;;;;5.40;3.08;;;3.40;99.90;;;;;;4908700;29;20036;-69
2023/12/06 11:27:44;;;;;;;3.67;2.80;;;3.30;99.90;;;;;;4908720;29;20076;-69
2023/12/06 11:30:17;;;;;;;2.75;2.50;;;3.40;99.90;;;;;;4908818;29;20399;-69
2023/12/06 11:32:56;;;;;;;3.85;2.80;;;3.40;99.90;;;;;;4911971;29;20044;-69
2023/12/06 11:35:42;;;;;;;3.55;2.78;;;3.40;99.90;;;;;;4911645;29;20075;-69
2023/12/06 11:38:14;;;;;;;3.40;2.72;;;3.40;99.90;;;;;;4912761;29;20075;-69
2023/12/06 11:40:50;;;;;;;4.00;2.45;;;3.40;99.90;;;;;;4908428;29;20036;-69
2023/12/06 11:43:33;;;;;;;3.83;2.80;;;3.50;99.90;;;;;;4918885;29;20051;-69
2023/12/06 11:46:05;;;;;;;4.78;2.47;;;3.40;99.90;;;;;;4923775;29;20055;-69
2023/12/06 11:48:36;;;;;;;3.72;2.50;;;3.40;99.90;;;;;;4914276;29;20040;-69
2023/12/06 11:51:20;;;;;;;4.57;2.85;;;3.40;99.90;;;;;;4907051;29;20045;-69
2023/12/06 11:53:47;;;;;;;5.45;3.08;;;3.50;99.90;;;;;;4921176;29;20105;-69
2023/12/06 11:56:24;;;;;;;3.08;2.60;;;3.50;99.90;;;;;;4910368;29;20064;-69
2023/12/06 11:58:57;;;;;;;3.80;2.72;;;3.50;99.90;;;;;;4909491;29;20535;-69
2023/12/06 12:01:29;;;;;;;3.65;2.50;;;3.50;99.90;;;;;;4914780;29;20055;-69
2023/12/06 12:03:57;;;;;;;2.97;2.42;;;3.50;99.90;;;;;;4914419;29;20036;-69
2023/12/06 12:06:29;;;;;;;3.67;2.85;;;3.50;99.90;;;;;;4908974;29;20052;-68
2023/12/06 12:09:02;;;;;;;3.17;2.38;;;3.50;99.90;;;;;;4909844;29;20043;-69
2023/12/06 12:11:34;;;;;;;4.03;2.63;;;3.50;99.90;;;;;;4911569;29;20059;-69
2023/12/06 12:14:07;;;;;;;3.72;2.60;;;3.50;99.90;;;;;;4910095;29;20395;-68
2023/12/06 12:16:41;;;;;;;2.75;2.25;;;3.50;99.90;;;;;;4910335;29;20055;-70
2023/12/06 12:19:13;;;;;;;3.95;2.95;;;3.50;99.90;;;;;;4911227;29;20054;-70
2023/12/06 12:21:45;;;;;;;4.45;2.50;;;3.50;99.90;;;;;;4912592;29;20036;-70
2023/12/06 12:24:13;;;;;;;3.40;2.70;;;3.50;99.90;;;;;;4906735;29;20048;-69
2023/12/06 12:26:45;;;;;;;4.97;3.00;;;3.50;99.90;;;;;;4913530;29;20044;-68
2023/12/06 12:29:17;;;;;;;3.55;2.70;;;3.50;99.90;;;;;;4911515;29;20128;-68
2023/12/06 12:31:44;;;;;;;4.13;2.95;;;3.50;99.90;;;;;;4924834;29;20052;-67
2023/12/06 12:34:16;;;;;;;4.13;3.03;;;3.50;99.90;;;;;;4911701;29;20040;-67
2023/12/06 12:36:43;;;;;;;3.38;2.60;;;3.50;99.90;;;;;;4913877;29;20054;-69
2023/12/06 12:39:11;;;;;;;3.45;3.10;;;3.50;99.90;;;;;;4908870;29;20052;-67
2023/12/06 12:41:42;;;;;;;4.50;2.80;;;3.60;99.90;;;;;;4910553;29;20048;-68
2023/12/06 12:44:14;;;;;;;3.67;3.13;;;3.50;99.90;;;;;;4912775;29;20127;-68
2023/12/06 12:46:47;;;;;;;4.47;2.83;;;3.40;99.90;;;;;;4915538;29;20044;-68
2023/12/06 12:49:19;;;;;;;2.97;2.60;;;3.50;99.90;;;;;;4910437;29;20237;-69
2023/12/06 12:51:47;;;;;;;3.65;3.10;;;3.40;99.90;;;;;;4910447;29;20047;-69
2023/12/06 12:54:20;;;;;;;3.40;2.83;;;3.40;99.90;;;;;;4915157;29;20523;-68
2023/12/06 12:56:53;;;;;;;4.22;2.90;;;3.40;99.90;;;;;;4912642;29;20315;-69
2023/12/06 12:59:25;;;;;;;3.50;3.00;;;3.30;99.90;;;;;;4903430;29;20067;-68
2023/12/06 13:01:57;;;;;;;4.50;2.80;;;3.40;99.90;;;;;;4897662;29;20394;-69
2023/12/06 13:04:29;;;;;;;4.93;3.05;;;3.40;99.90;;;;;;4908374;29;20540;-69
2023/12/06 13:07:02;;;;;;;3.90;2.92;;;3.40;99.90;;;;;;4910860;29;20052;-69
2023/12/06 13:09:35;;;;;;;4.95;3.28;;;3.40;99.90;;;;;;4913418;29;20041;-69
2023/12/06 13:12:07;;;;;;;3.83;2.97;;;3.40;99.90;;;;;;4913997;29;20050;-67
2023/12/06 13:14:39;;;;;;;4.78;3.40;;;3.40;99.90;;;;;;4909964;29;20041;-69
2023/12/06 13:17:11;;;;;;;5.60;3.47;;;3.30;99.90;;;;;;4914217;29;20049;-67
2023/12/06 13:19:38;;;;;;;3.97;3.40;;;3.30;99.90;;;;;;4913784;29;20448;-69
2023/12/06 13:22:10;;;;;;;4.20;2.83;;;3.30;99.90;;;;;;4938685;28;20044;-69